Time;durP1;ratioP1;P1;durP2;ratioP2;P2;SDS_P1;SDS_P2;PMS_P1;PMS_P2;Temp;Humidity;BMP_temperature;BMP_pressure;BME280_temperature;BME280_humidity;BME280_pressure;Samples;Min_cycle;Max_cycle;Signal;HPM_P1;HPM_P2
2023/08/02 00:01:15;;;;;;;4.87;4.30;;;16.70;99.90;;;;;;5093017;28;20411;-69
2023/08/02 00:03:43;;;;;;;6.87;4.57;;;16.70;99.90;;;;;;5092926;28;20463;-69
2023/08/02 00:06:24;;;;;;;5.17;3.80;;;16.70;99.90;;;;;;5094917;28;20751;-69
2023/08/02 00:08:52;;;;;;;7.93;5.23;;;16.70;99.90;;;;;;5093271;28;20432;-69
2023/08/02 00:11:20;;;;;;;9.60;4.40;;;16.60;99.90;;;;;;5094180;28;20505;-69
2023/08/02 00:13:48;;;;;;;5.00;4.30;;;16.60;99.90;;;;;;5094368;28;20481;-69
2023/08/02 00:16:18;;;;;;;5.83;4.23;;;16.60;99.90;;;;;;5094239;28;20432;-69
2023/08/02 00:18:46;;;;;;;6.50;4.27;;;16.70;99.90;;;;;;5094925;28;20417;-69
2023/08/02 00:21:14;;;;;;;6.57;4.67;;;16.60;99.90;;;;;;5094110;28;20517;-69
2023/08/02 00:23:42;;;;;;;4.50;4.07;;;16.60;99.90;;;;;;5092769;28;20459;-69
2023/08/02 00:26:10;;;;;;;4.20;3.70;;;16.60;99.90;;;;;;5094071;28;20423;-69
2023/08/02 00:28:38;;;;;;;5.77;4.33;;;16.60;99.90;;;;;;5092821;28;20506;-69
2023/08/02 00:31:06;;;;;;;10.07;5.13;;;16.60;99.90;;;;;;5092798;28;20839;-69
2023/08/02 00:33:36;;;;;;;6.47;4.40;;;16.60;99.90;;;;;;5093962;28;20513;-69
2023/08/02 00:36:04;;;;;;;4.83;4.10;;;16.60;99.90;;;;;;5092931;28;20453;-69
2023/08/02 00:38:32;;;;;;;7.07;4.90;;;16.60;99.90;;;;;;5092649;28;20433;-69
2023/08/02 00:41:04;;;;;;;5.60;4.43;;;16.60;99.90;;;;;;5093943;28;20452;-69
2023/08/02 00:43:39;;;;;;;9.70;5.10;;;16.60;99.90;;;;;;5092673;28;20570;-69
2023/08/02 00:46:07;;;;;;;5.80;4.57;;;16.60;99.90;;;;;;5092540;28;20432;-69
2023/08/02 00:48:38;;;;;;;5.67;3.90;;;16.60;99.90;;;;;;5092481;28;20452;-69
2023/08/02 00:51:08;;;;;;;5.50;4.23;;;16.60;99.90;;;;;;5094255;28;20436;-69
2023/08/02 00:53:36;;;;;;;9.37;4.70;;;16.60;99.90;;;;;;5092379;28;20542;-69
2023/08/02 00:56:05;;;;;;;5.40;4.50;;;16.50;99.90;;;;;;5093614;28;20446;-69
2023/08/02 00:58:33;;;;;;;5.93;4.87;;;16.50;99.90;;;;;;5092298;28;20447;-69
2023/08/02 01:01:07;;;;;;;7.73;4.90;;;16.50;99.90;;;;;;5092292;28;20765;-69
2023/08/02 01:03:38;;;;;;;6.57;5.10;;;16.60;99.90;;;;;;5092176;28;20884;-69
2023/08/02 01:06:14;;;;;;;6.50;5.20;;;16.60;99.90;;;;;;5092358;28;20419;-69
2023/08/02 01:08:46;;;;;;;10.33;4.80;;;16.50;99.90;;;;;;5093842;28;20395;-69
2023/08/02 01:11:20;;;;;;;10.23;5.00;;;16.50;99.90;;;;;;5093340;28;20827;-69
2023/08/02 01:13:54;;;;;;;5.80;4.77;;;16.50;99.90;;;;;;5093399;28;20810;-69
2023/08/02 01:16:24;;;;;;;8.13;4.73;;;16.50;99.90;;;;;;5093653;28;20501;-69
2023/08/02 01:19:02;;;;;;;5.33;4.87;;;16.50;99.90;;;;;;5093664;28;20743;-69
2023/08/02 01:21:30;;;;;;;6.60;5.17;;;16.50;99.90;;;;;;5093765;28;20454;-69
2023/08/02 01:23:59;;;;;;;9.33;5.50;;;16.50;99.90;;;;;;5093833;28;20438;-69
2023/08/02 01:26:31;;;;;;;7.30;4.67;;;16.50;99.90;;;;;;5093233;28;20442;-69
2023/08/02 01:29:03;;;;;;;8.20;5.30;;;16.50;99.90;;;;;;5093483;28;20490;-69
2023/08/02 01:31:34;;;;;;;6.20;5.50;;;16.50;99.90;;;;;;5091971;28;20899;-69
2023/08/02 01:34:02;;;;;;;7.57;5.50;;;16.50;99.90;;;;;;5093104;28;20433;-69
2023/08/02 01:36:32;;;;;;;7.23;5.27;;;16.50;99.90;;;;;;5091898;28;20421;-69
2023/08/02 01:39:00;;;;;;;5.93;5.10;;;16.50;99.90;;;;;;5093017;28;20431;-69
2023/08/02 01:41:28;;;;;;;10.80;5.80;;;16.50;99.90;;;;;;5093146;28;20498;-69
2023/08/02 01:43:56;;;;;;;5.60;4.57;;;16.50;99.90;;;;;;5091771;28;20521;-69
2023/08/02 01:46:24;;;;;;;7.30;5.37;;;16.50;99.90;;;;;;5092613;28;20864;-69
2023/08/02 01:48:52;;;;;;;8.30;5.33;;;16.50;99.90;;;;;;5096991;28;20969;-69
2023/08/02 01:51:20;;;;;;;6.77;5.07;;;16.50;99.90;;;;;;5097063;28;20501;-69
2023/08/02 01:53:50;;;;;;;6.50;4.97;;;16.50;99.90;;;;;;5097312;28;20477;-69
2023/08/02 01:56:18;;;;;;;6.40;4.97;;;16.50;99.90;;;;;;5095723;28;20463;-69
2023/08/02 01:58:46;;;;;;;9.20;6.10;;;16.50;99.90;;;;;;5095591;28;20521;-69
2023/08/02 02:01:15;;;;;;;7.00;5.37;;;16.50;99.90;;;;;;5095605;28;20414;-69
2023/08/02 02:03:43;;;;;;;6.87;5.37;;;16.50;99.90;;;;;;5095410;28;20464;-69
2023/08/02 02:06:11;;;;;;;7.93;5.33;;;16.50;99.90;;;;;;5096755;28;20411;-69
2023/08/02 02:08:40;;;;;;;7.37;5.60;;;16.50;99.90;;;;;;5095713;28;20959;-69
2023/08/02 02:11:09;;;;;;;7.77;5.40;;;16.50;99.90;;;;;;5095644;28;20852;-69
2023/08/02 02:13:37;;;;;;;8.43;6.03;;;16.50;99.90;;;;;;5096875;28;20448;-69
2023/08/02 02:16:05;;;;;;;9.53;5.77;;;16.50;99.90;;;;;;5096637;28;20464;-69
2023/08/02 02:18:34;;;;;;;7.30;5.90;;;16.40;99.90;;;;;;5095242;28;20423;-69
2023/08/02 02:21:02;;;;;;;8.03;5.93;;;16.40;99.90;;;;;;5096621;28;20846;-69
2023/08/02 02:23:30;;;;;;;8.87;6.27;;;16.40;99.90;;;;;;5096387;28;20550;-69
2023/08/02 02:25:58;;;;;;;8.10;5.70;;;16.40;99.90;;;;;;5096738;28;20415;-69
2023/08/02 02:28:28;;;;;;;10.20;6.70;;;16.40;99.90;;;;;;5095114;28;21063;-69
2023/08/02 02:30:56;;;;;;;9.60;6.50;;;16.40;99.90;;;;;;5095043;28;20462;-69
2023/08/02 02:33:25;;;;;;;8.10;6.10;;;16.40;99.90;;;;;;5096189;28;20452;-69
2023/08/02 02:35:53;;;;;;;7.50;5.60;;;16.40;99.90;;;;;;5096242;28;20413;-69
2023/08/02 02:38:21;;;;;;;6.77;6.10;;;16.40;99.90;;;;;;5094703;28;20435;-69
2023/08/02 02:40:49;;;;;;;9.53;6.17;;;16.40;99.90;;;;;;5094873;28;20442;-69
2023/08/02 02:43:17;;;;;;;7.73;5.77;;;16.40;99.90;;;;;;5094639;28;20507;-69
2023/08/02 02:45:46;;;;;;;7.27;5.73;;;16.40;99.90;;;;;;5094787;28;21028;-69
2023/08/02 02:48:16;;;;;;;9.90;7.00;;;16.40;99.90;;;;;;5094693;28;20497;-69
2023/08/02 02:50:45;;;;;;;8.93;6.47;;;16.40;99.90;;;;;;5096529;28;20888;-69
2023/08/02 02:53:13;;;;;;;7.53;5.40;;;16.40;99.90;;;;;;5094563;28;20464;-69
2023/08/02 02:55:41;;;;;;;7.23;5.27;;;16.40;99.90;;;;;;5095802;28;20476;-69
2023/08/02 02:58:09;;;;;;;6.90;5.40;;;16.40;99.90;;;;;;5094710;28;20415;-69
2023/08/02 03:00:37;;;;;;;7.47;5.57;;;16.40;99.90;;;;;;5094486;28;20438;-69
2023/08/02 03:03:06;;;;;;;9.50;7.10;;;16.40;99.90;;;;;;5095717;28;20511;-69
2023/08/02 03:05:34;;;;;;;9.37;6.50;;;16.30;99.90;;;;;;5095772;28;20409;-69
2023/08/02 03:08:03;;;;;;;9.53;6.00;;;16.40;99.90;;;;;;5096350;28;20487;-69
2023/08/02 03:10:31;;;;;;;9.03;5.50;;;16.30;99.90;;;;;;5095634;28;20784;-69
2023/08/02 03:12:59;;;;;;;8.33;5.20;;;16.30;99.90;;;;;;5095449;28;20427;-69
2023/08/02 03:15:27;;;;;;;12.00;6.47;;;16.40;99.90;;;;;;5095549;28;20415;-69
2023/08/02 03:17:55;;;;;;;6.77;5.67;;;16.30;99.90;;;;;;5095425;28;20436;-69
2023/08/02 03:20:24;;;;;;;8.10;5.40;;;16.40;99.90;;;;;;5094116;28;20438;-69
2023/08/02 03:22:54;;;;;;;5.70;5.10;;;16.40;99.90;;;;;;5095253;28;20470;-69
2023/08/02 03:25:22;;;;;;;10.60;5.53;;;16.40;99.90;;;;;;5095790;28;20407;-69
2023/08/02 03:27:50;;;;;;;12.20;6.10;;;16.40;99.90;;;;;;5095830;28;20452;-69
2023/08/02 03:30:18;;;;;;;8.87;5.40;;;16.40;99.90;;;;;;5095174;28;20402;-69
2023/08/02 03:32:46;;;;;;;9.27;5.40;;;16.40;99.90;;;;;;5095600;28;20435;-70
2023/08/02 03:35:14;;;;;;;7.73;5.70;;;16.40;99.90;;;;;;5095338;28;20823;-69
2023/08/02 03:37:44;;;;;;;6.10;4.73;;;16.40;99.90;;;;;;5094875;28;20426;-69
2023/08/02 03:40:12;;;;;;;6.10;5.50;;;16.40;99.90;;;;;;5094846;28;20446;-69
2023/08/02 03:42:40;;;;;;;10.80;6.10;;;16.40;99.90;;;;;;5095136;28;20551;-69
2023/08/02 03:45:09;;;;;;;7.07;5.57;;;16.40;99.90;;;;;;5094885;28;20468;-69
2023/08/02 03:47:37;;;;;;;7.10;5.17;;;16.40;99.90;;;;;;5094994;28;20933;-69
2023/08/02 03:50:06;;;;;;;9.00;5.27;;;16.40;99.90;;;;;;5093541;28;20423;-69
2023/08/02 03:52:34;;;;;;;11.03;6.00;;;16.40;99.90;;;;;;5094866;28;20509;-69
2023/08/02 03:55:04;;;;;;;17.30;6.10;;;16.40;99.90;;;;;;5095339;28;20433;-70
2023/08/02 03:57:33;;;;;;;10.20;5.83;;;16.40;99.90;;;;;;5093377;28;20477;-69
2023/08/02 04:00:01;;;;;;;11.10;6.20;;;16.40;99.90;;;;;;5094517;28;20938;-70
2023/08/02 04:02:39;;;;;;;12.20;5.30;;;16.40;99.90;;;;;;5094507;28;20458;-70
2023/08/02 04:05:07;;;;;;;10.40;6.50;;;16.40;99.90;;;;;;5094406;28;20464;-70
2023/08/02 04:07:35;;;;;;;8.03;6.67;;;16.40;99.90;;;;;;5093108;28;20926;-69
2023/08/02 04:10:05;;;;;;;5.83;4.77;;;16.40;99.90;;;;;;5094679;28;20528;-69
2023/08/02 04:12:34;;;;;;;8.50;5.87;;;16.40;99.90;;;;;;5094513;28;20423;-69
2023/08/02 04:15:02;;;;;;;10.70;5.60;;;16.40;99.90;;;;;;5094219;28;20461;-69
2023/08/02 04:17:30;;;;;;;9.90;5.60;;;16.40;99.90;;;;;;5094508;28;20411;-69
2023/08/02 04:19:59;;;;;;;7.53;5.70;;;16.40;99.90;;;;;;5092953;28;20472;-69
2023/08/02 04:22:30;;;;;;;7.70;5.10;;;16.40;99.90;;;;;;5094192;28;20455;-69
2023/08/02 04:24:58;;;;;;;9.47;5.57;;;16.40;99.90;;;;;;5094334;28;20965;-69
2023/08/02 04:27:27;;;;;;;7.37;4.67;;;16.40;99.90;;;;;;5094131;28;20403;-69
2023/08/02 04:29:56;;;;;;;7.10;5.83;;;16.40;99.90;;;;;;5094205;28;20763;-69
2023/08/02 04:32:24;;;;;;;6.03;5.43;;;16.40;99.90;;;;;;5094199;28;20426;-69
2023/08/02 04:34:52;;;;;;;7.53;5.37;;;16.40;99.90;;;;;;5093940;28;20436;-69
2023/08/02 04:37:20;;;;;;;10.00;6.00;;;16.40;99.90;;;;;;5094064;28;20904;-69
2023/08/02 04:39:48;;;;;;;9.50;6.50;;;16.40;99.90;;;;;;5093666;28;20430;-69
2023/08/02 04:42:16;;;;;;;10.10;6.00;;;16.40;99.90;;;;;;5093792;28;20423;-69
2023/08/02 04:44:46;;;;;;;12.80;5.90;;;16.40;99.90;;;;;;5093630;28;20504;-69
2023/08/02 04:47:14;;;;;;;8.50;5.87;;;16.40;99.90;;;;;;5093719;28;20398;-69
2023/08/02 04:49:42;;;;;;;9.80;6.30;;;16.40;99.90;;;;;;5093631;28;20958;-69
2023/08/02 04:52:10;;;;;;;8.10;5.20;;;16.50;99.90;;;;;;5093628;28;20521;-69
2023/08/02 04:54:38;;;;;;;9.07;5.60;;;16.50;99.90;;;;;;5094173;28;20464;-69
2023/08/02 04:57:07;;;;;;;8.50;5.30;;;16.50;99.90;;;;;;5092292;28;20429;-69
2023/08/02 04:59:35;;;;;;;11.50;6.53;;;16.50;99.90;;;;;;5094168;28;20931;-69
2023/08/02 05:02:05;;;;;;;5.67;5.07;;;16.50;99.90;;;;;;5092245;28;20466;-69
2023/08/02 05:04:33;;;;;;;9.73;5.43;;;16.50;99.90;;;;;;5093522;28;20438;-69
2023/08/02 05:07:01;;;;;;;10.67;6.20;;;16.50;99.90;;;;;;5093600;28;20425;-69
2023/08/02 05:09:29;;;;;;;6.63;5.70;;;16.50;99.90;;;;;;5093473;28;20923;-69
2023/08/02 05:11:57;;;;;;;10.80;5.50;;;16.50;99.90;;;;;;5093382;28;20427;-69
2023/08/02 05:14:25;;;;;;;9.63;5.50;;;16.50;99.90;;;;;;5093430;28;20442;-69
2023/08/02 05:16:53;;;;;;;10.93;5.50;;;16.60;99.90;;;;;;5093378;28;20509;-69
2023/08/02 05:19:23;;;;;;;16.57;6.50;;;16.60;99.90;;;;;;5093353;28;20444;-69
2023/08/02 05:21:51;;;;;;;13.83;6.37;;;16.60;99.90;;;;;;5094626;28;20430;-69
2023/08/02 05:24:19;;;;;;;8.53;6.20;;;16.60;99.90;;;;;;5096242;28;20977;-69
2023/08/02 05:26:47;;;;;;;7.93;5.43;;;16.60;99.90;;;;;;5098096;28;20502;-69
2023/08/02 05:29:15;;;;;;;10.77;6.57;;;16.60;99.90;;;;;;5097780;28;20415;-69
2023/08/02 05:31:43;;;;;;;10.80;6.40;;;16.60;99.90;;;;;;5096171;28;20430;-69
2023/08/02 05:34:12;;;;;;;10.73;6.43;;;16.60;99.90;;;;;;5097429;28;20432;-69
2023/08/02 05:36:41;;;;;;;9.27;5.97;;;16.60;99.90;;;;;;5097277;28;20413;-69
2023/08/02 05:39:09;;;;;;;9.10;6.40;;;16.60;99.90;;;;;;5097549;28;20447;-69
2023/08/02 05:41:37;;;;;;;9.70;5.90;;;16.60;99.90;;;;;;5097329;28;20872;-70
2023/08/02 05:44:05;;;;;;;9.03;6.43;;;16.70;99.90;;;;;;5095850;28;20450;-69
2023/08/02 05:46:34;;;;;;;8.50;6.33;;;16.70;99.90;;;;;;5097402;28;20801;-69
2023/08/02 05:49:02;;;;;;;10.70;7.10;;;16.70;99.90;;;;;;5097149;28;20436;-69
2023/08/02 05:51:30;;;;;;;11.90;7.37;;;16.70;99.90;;;;;;5097322;28;20822;-69
2023/08/02 05:54:00;;;;;;;7.50;6.47;;;16.70;99.90;;;;;;5097104;28;20443;-69
2023/08/02 05:56:28;;;;;;;12.07;8.07;;;16.80;99.90;;;;;;5097568;28;20872;-69
2023/08/02 05:58:56;;;;;;;16.10;9.50;;;16.80;99.90;;;;;;5096910;28;20411;-69
2023/08/02 06:01:24;;;;;;;11.40;9.77;;;16.80;99.90;;;;;;5096911;28;20501;-69
2023/08/02 06:03:52;;;;;;;11.50;8.90;;;16.90;99.90;;;;;;5095505;28;20471;-69
2023/08/02 06:06:22;;;;;;;13.00;10.23;;;17.10;99.90;;;;;;5097068;28;20499;-69
2023/08/02 06:08:50;;;;;;;14.40;9.57;;;17.20;99.90;;;;;;5097034;28;21014;-70
2023/08/02 06:11:19;;;;;;;9.80;8.83;;;17.20;99.90;;;;;;5097230;28;20900;-70
2023/08/02 06:13:47;;;;;;;12.67;10.20;;;17.30;99.90;;;;;;5096509;28;20993;-70
2023/08/02 06:16:15;;;;;;;10.73;9.00;;;17.30;99.90;;;;;;5096620;28;20490;-70
2023/08/02 06:18:43;;;;;;;10.63;8.20;;;17.30;99.90;;;;;;5096964;28;20407;-70
2023/08/02 06:21:11;;;;;;;14.73;8.87;;;17.40;99.90;;;;;;5095167;28;20415;-70
2023/08/02 06:23:39;;;;;;;16.37;12.33;;;17.50;99.90;;;;;;5096359;28;20430;-70
2023/08/02 06:26:07;;;;;;;9.70;7.87;;;17.40;99.90;;;;;;5096733;28;20556;-70
2023/08/02 06:28:37;;;;;;;12.17;10.73;;;17.50;99.90;;;;;;5094993;28;20880;-70
2023/08/02 06:31:05;;;;;;;9.73;7.37;;;17.50;99.90;;;;;;5096512;28;20773;-69
2023/08/02 06:33:33;;;;;;;10.53;6.87;;;17.50;99.90;;;;;;5096098;28;20548;-69
2023/08/02 06:36:01;;;;;;;12.13;7.27;;;17.50;99.90;;;;;;5096732;28;20464;-69
2023/08/02 06:38:32;;;;;;;8.80;7.30;;;17.50;99.90;;;;;;5096003;28;20411;-70
2023/08/02 06:41:00;;;;;;;11.27;6.83;;;17.60;99.90;;;;;;5096271;28;20427;-69
2023/08/02 06:43:28;;;;;;;11.20;5.80;;;17.60;99.90;;;;;;5094724;28;20947;-69
2023/08/02 06:45:57;;;;;;;7.10;5.80;;;17.70;99.90;;;;;;5096542;28;20780;-70
2023/08/02 06:48:27;;;;;;;11.13;6.17;;;17.70;99.90;;;;;;5094704;28;20411;-70
2023/08/02 06:50:55;;;;;;;7.27;5.80;;;17.70;99.90;;;;;;5096033;28;20490;-69
2023/08/02 06:53:23;;;;;;;10.70;6.10;;;17.80;99.90;;;;;;5095847;28;20450;-69
2023/08/02 06:55:51;;;;;;;9.80;5.63;;;17.80;99.90;;;;;;5096092;28;20432;-69
2023/08/02 06:58:20;;;;;;;9.03;5.53;;;17.80;99.90;;;;;;5096319;28;20922;-70
2023/08/02 07:00:48;;;;;;;7.40;6.00;;;17.90;99.90;;;;;;5094935;28;21038;-69
2023/08/02 07:03:17;;;;;;;9.07;6.27;;;17.90;99.90;;;;;;5094904;28;20491;-69
2023/08/02 07:05:45;;;;;;;9.33;7.30;;;17.90;99.90;;;;;;5095901;28;20998;-69
2023/08/02 07:08:14;;;;;;;10.57;6.10;;;17.90;99.90;;;;;;5095733;28;20520;-69
2023/08/02 07:10:42;;;;;;;8.37;5.80;;;17.90;99.90;;;;;;5095786;28;20961;-69
2023/08/02 07:13:10;;;;;;;8.43;5.97;;;17.90;99.90;;;;;;5095560;28;20513;-69
2023/08/02 07:15:38;;;;;;;13.80;6.93;;;17.90;99.90;;;;;;5095695;28;20498;-69
2023/08/02 07:18:06;;;;;;;9.87;6.03;;;17.90;99.90;;;;;;5095557;28;20535;-70
2023/08/02 07:20:35;;;;;;;6.83;5.17;;;18.00;99.90;;;;;;5094410;28;20445;-70
2023/08/02 07:23:03;;;;;;;8.57;6.50;;;18.00;99.90;;;;;;5095613;28;20456;-69
2023/08/02 07:25:32;;;;;;;10.07;6.17;;;18.00;99.90;;;;;;5095459;28;20875;-69
2023/08/02 07:28:00;;;;;;;10.40;6.87;;;18.00;99.90;;;;;;5095723;28;20440;-69
2023/08/02 07:30:28;;;;;;;10.03;5.60;;;18.00;99.90;;;;;;5096027;28;20443;-69
2023/08/02 07:32:56;;;;;;;7.80;5.50;;;18.10;99.90;;;;;;5095450;28;20449;-69
2023/08/02 07:35:24;;;;;;;12.00;7.70;;;18.10;99.90;;;;;;5095521;28;20442;-69
2023/08/02 07:37:54;;;;;;;7.77;6.73;;;18.10;99.90;;;;;;5095140;28;20403;-69
2023/08/02 07:40:22;;;;;;;11.33;7.20;;;18.20;99.90;;;;;;5094999;28;20479;-69
2023/08/02 07:42:50;;;;;;;10.20;6.90;;;18.20;99.90;;;;;;5095225;28;20427;-70
2023/08/02 07:45:18;;;;;;;7.60;5.80;;;18.30;99.90;;;;;;5094453;28;20436;-69
2023/08/02 07:47:47;;;;;;;7.80;5.77;;;18.50;99.90;;;;;;5095485;28;20432;-69
2023/08/02 07:50:15;;;;;;;10.23;6.80;;;18.60;99.90;;;;;;5093451;28;20448;-70
2023/08/02 07:52:43;;;;;;;12.83;8.87;;;18.70;99.90;;;;;;5095261;28;20452;-70
2023/08/02 07:55:12;;;;;;;12.30;7.63;;;18.70;99.90;;;;;;5094796;28;20951;-69
2023/08/02 07:57:40;;;;;;;9.63;6.70;;;18.80;99.90;;;;;;5095165;28;20432;-69
2023/08/02 08:00:10;;;;;;;10.83;6.10;;;18.70;99.90;;;;;;5094691;28;20776;-70
2023/08/02 08:02:40;;;;;;;8.50;5.80;;;18.80;99.90;;;;;;5095159;28;20518;-70
2023/08/02 08:05:09;;;;;;;8.90;6.23;;;18.70;99.90;;;;;;5094621;28;20771;-70
2023/08/02 08:07:37;;;;;;;6.20;5.30;;;18.70;99.90;;;;;;5094340;28;20456;-69
2023/08/02 08:10:06;;;;;;;10.23;7.27;;;18.70;99.90;;;;;;5094820;28;20956;-69
2023/08/02 08:12:36;;;;;;;9.87;5.90;;;18.70;99.90;;;;;;5093126;28;20506;-70
2023/08/02 08:15:07;;;;;;;8.37;6.10;;;18.70;99.90;;;;;;5094754;28;20421;-70
2023/08/02 08:17:35;;;;;;;14.13;8.07;;;18.70;99.90;;;;;;5093142;28;20452;-69
2023/08/02 08:20:06;;;;;;;8.73;7.73;;;18.70;99.90;;;;;;5094913;28;20436;-69
2023/08/02 08:22:34;;;;;;;8.30;4.93;;;18.70;99.90;;;;;;5094493;28;20452;-69
2023/08/02 08:25:02;;;;;;;8.70;5.23;;;18.70;99.90;;;;;;5094301;28;20517;-70
2023/08/02 08:27:30;;;;;;;5.37;4.83;;;18.70;99.90;;;;;;5094041;28;20492;-70
2023/08/02 08:30:00;;;;;;;8.80;5.47;;;18.70;99.90;;;;;;5094114;28;20438;-70
2023/08/02 08:32:29;;;;;;;7.17;4.87;;;18.70;99.90;;;;;;5094038;28;20525;-70
2023/08/02 08:34:57;;;;;;;9.97;7.97;;;18.70;99.90;;;;;;5094388;28;20440;-69
2023/08/02 08:37:26;;;;;;;8.70;6.40;;;18.70;99.90;;;;;;5093974;28;20433;-69
2023/08/02 08:39:55;;;;;;;8.20;6.33;;;18.70;99.90;;;;;;5093924;28;20483;-70
2023/08/02 08:42:48;;;;;;;9.40;8.33;;;18.70;99.90;;;;;;5092673;28;20529;-70
2023/08/02 08:45:20;;;;;;;7.10;5.80;;;18.70;99.90;;;;;;5094989;28;20512;-69
2023/08/02 08:47:50;;;;;;;8.07;4.70;;;18.70;99.90;;;;;;5094081;28;20456;-70
2023/08/02 08:50:20;;;;;;;5.90;5.13;;;18.70;99.90;;;;;;5094502;28;20428;-69
2023/08/02 08:52:50;;;;;;;6.47;5.33;;;18.70;99.90;;;;;;5098695;28;20506;-70
2023/08/02 08:55:19;;;;;;;8.43;6.17;;;18.70;99.90;;;;;;5096992;28;20432;-70
2023/08/02 08:57:50;;;;;;;7.10;5.10;;;18.70;99.90;;;;;;5099136;28;20429;-70
2023/08/02 09:00:20;;;;;;;7.53;6.13;;;18.80;99.90;;;;;;5098512;28;20431;-70
2023/08/02 09:02:48;;;;;;;8.30;6.90;;;18.80;99.90;;;;;;5099128;28;20456;-70
2023/08/02 09:05:17;;;;;;;7.70;6.90;;;18.80;99.90;;;;;;5099071;28;20446;-70
2023/08/02 09:07:45;;;;;;;10.60;8.27;;;18.80;99.90;;;;;;5098701;28;20571;-70
2023/08/02 09:10:12;;;;;;;9.27;6.60;;;18.80;99.90;;;;;;5098830;28;20464;-70
2023/08/02 09:12:45;;;;;;;7.80;6.40;;;18.80;99.90;;;;;;5095638;28;20495;-70
2023/08/02 09:15:15;;;;;;;12.50;7.10;;;18.80;99.90;;;;;;5094174;28;20417;-70
2023/08/02 09:17:49;;;;;;;6.67;6.07;;;18.80;99.90;;;;;;5094947;28;20436;-70
2023/08/02 09:20:19;;;;;;;9.23;6.40;;;18.80;99.90;;;;;;5093238;28;20443;-70
2023/08/02 09:22:48;;;;;;;7.60;6.30;;;18.80;99.90;;;;;;5097038;28;20460;-70
2023/08/02 09:25:23;;;;;;;8.07;5.80;;;18.80;99.90;;;;;;5098717;28;20526;-71
2023/08/02 09:27:53;;;;;;;6.10;5.50;;;18.80;99.90;;;;;;5100339;28;20475;-70
2023/08/02 09:30:27;;;;;;;7.30;6.27;;;18.70;99.90;;;;;;5100862;28;20436;-70
2023/08/02 09:33:04;;;;;;;9.00;8.10;;;18.70;99.90;;;;;;5100554;28;20965;-70
2023/08/02 09:35:34;;;;;;;10.80;9.70;;;18.70;99.90;;;;;;5099899;28;20431;-71
2023/08/02 09:38:09;;;;;;;9.40;6.77;;;18.70;99.90;;;;;;5100199;28;20478;-70
2023/08/02 09:40:38;;;;;;;7.07;6.37;;;18.70;99.90;;;;;;5097145;28;20507;-70
2023/08/02 09:43:26;;;;;;;7.30;6.43;;;18.70;99.90;;;;;;5094809;28;20981;-70
2023/08/02 09:45:55;;;;;;;8.60;4.80;;;18.60;99.90;;;;;;5094056;28;20925;-70
2023/08/02 09:48:36;;;;;;;7.90;5.70;;;18.60;99.90;;;;;;5094505;28;20467;-71
2023/08/02 09:51:04;;;;;;;9.67;7.40;;;18.60;99.90;;;;;;5096011;28;20770;-70
2023/08/02 09:53:32;;;;;;;7.07;6.03;;;18.60;99.90;;;;;;5095652;28;20494;-70
2023/08/02 09:56:03;;;;;;;11.07;6.40;;;18.60;99.90;;;;;;5096279;28;20526;-70
2023/08/02 09:58:31;;;;;;;7.53;6.10;;;18.60;99.90;;;;;;5097690;28;20421;-70
2023/08/02 10:01:02;;;;;;;9.53;6.10;;;18.60;99.90;;;;;;5096486;28;20432;-70
2023/08/02 10:03:32;;;;;;;9.10;6.47;;;18.50;99.90;;;;;;5097269;28;20459;-70
2023/08/02 10:06:07;;;;;;;6.60;5.87;;;18.50;99.90;;;;;;5097612;28;20512;-70
2023/08/02 10:08:38;;;;;;;7.77;6.13;;;18.50;99.90;;;;;;5099451;28;20456;-70
2023/08/02 10:11:07;;;;;;;8.60;6.00;;;18.50;99.90;;;;;;5099469;28;20432;-70
2023/08/02 10:13:39;;;;;;;8.70;6.70;;;18.50;99.90;;;;;;5099203;28;20444;-69
2023/08/02 10:16:08;;;;;;;10.47;8.87;;;18.60;99.90;;;;;;5099649;28;20416;-70
2023/08/02 10:18:41;;;;;;;8.60;7.70;;;18.60;99.90;;;;;;5099225;28;20423;-70
2023/08/02 10:21:11;;;;;;;7.40;6.33;;;18.60;99.90;;;;;;5097961;28;20441;-70
2023/08/02 10:23:40;;;;;;;5.90;5.40;;;18.70;99.90;;;;;;5097468;28;20467;-70
2023/08/02 10:26:09;;;;;;;6.13;5.50;;;18.70;99.90;;;;;;5098305;28;20972;-70
2023/08/02 10:28:37;;;;;;;7.53;5.53;;;18.70;99.90;;;;;;5099601;28;20468;-70
2023/08/02 10:31:08;;;;;;;7.30;6.00;;;18.70;99.90;;;;;;5099809;28;20822;-70
2023/08/02 10:33:36;;;;;;;5.60;4.80;;;18.70;99.90;;;;;;5099811;28;20456;-70
2023/08/02 10:36:06;;;;;;;7.60;5.40;;;18.70;99.90;;;;;;5100109;28;20436;-70
2023/08/02 10:38:52;;;;;;;6.33;5.07;;;18.70;99.90;;;;;;5098688;28;20447;-70
2023/08/02 10:41:23;;;;;;;5.60;4.40;;;18.70;99.90;;;;;;5098735;28;20416;-70
2023/08/02 10:44:12;;;;;;;5.57;4.70;;;18.60;99.90;;;;;;5096630;28;20456;-70
2023/08/02 10:46:40;;;;;;;8.13;4.60;;;18.60;99.90;;;;;;5096342;28;20481;-70
2023/08/02 10:49:41;;;;;;;6.43;4.33;;;18.60;99.90;;;;;;5096922;28;20546;-71
2023/08/02 10:52:27;;;;;;;5.63;4.83;;;18.50;99.90;;;;;;5096387;28;20452;-71
2023/08/02 10:55:11;;;;;;;4.70;4.30;;;18.50;99.90;;;;;;5096636;28;20420;-71
2023/08/02 10:57:40;;;;;;;7.17;4.70;;;18.50;99.90;;;;;;5096393;28;20408;-70
2023/08/02 11:00:18;;;;;;;5.03;4.33;;;18.40;99.90;;;;;;5096088;28;20415;-70
2023/08/02 11:02:48;;;;;;;6.00;4.80;;;18.40;99.90;;;;;;5094759;28;20474;-70
2023/08/02 11:05:36;;;;;;;6.57;5.93;;;18.40;99.90;;;;;;5096057;28;20470;-70
2023/08/02 11:08:07;;;;;;;10.17;9.27;;;18.40;99.90;;;;;;5096134;28;20547;-70
2023/08/02 11:10:48;;;;;;;7.90;5.77;;;18.40;99.90;;;;;;5095946;28;20444;-70
2023/08/02 11:13:16;;;;;;;6.67;5.10;;;18.40;99.90;;;;;;5095929;28;20801;-70
2023/08/02 11:15:45;;;;;;;6.83;6.13;;;18.40;99.90;;;;;;5096172;28;20464;-70
2023/08/02 11:18:15;;;;;;;6.00;5.40;;;18.50;99.90;;;;;;5096929;28;20428;-70
2023/08/02 11:21:08;;;;;;;6.53;5.73;;;18.50;99.90;;;;;;5097307;28;20789;-70
2023/08/02 11:23:36;;;;;;;6.30;5.80;;;18.50;99.90;;;;;;5097644;28;21031;-70
2023/08/02 11:26:12;;;;;;;6.67;5.57;;;18.50;99.90;;;;;;5096665;28;20917;-70
2023/08/02 11:28:43;;;;;;;6.20;5.60;;;18.50;99.90;;;;;;5097480;28;20456;-70
2023/08/02 11:31:11;;;;;;;6.03;5.43;;;18.50;99.90;;;;;;5094897;28;20937;-70
2023/08/02 11:33:40;;;;;;;8.77;7.90;;;18.50;99.90;;;;;;5095545;28;20547;-70
2023/08/02 11:36:08;;;;;;;7.63;6.37;;;18.50;99.90;;;;;;5093944;28;20451;-70
2023/08/02 11:38:37;;;;;;;6.27;5.67;;;18.50;99.90;;;;;;5095498;28;20786;-71
2023/08/02 11:41:17;;;;;;;6.43;5.30;;;18.50;99.90;;;;;;5095232;28;20402;-70
2023/08/02 11:43:45;;;;;;;5.57;5.07;;;18.50;99.90;;;;;;5093637;28;20494;-70
2023/08/02 11:46:15;;;;;;;7.47;5.47;;;18.40;99.90;;;;;;5093843;28;20457;-70
2023/08/02 11:48:43;;;;;;;6.57;5.40;;;18.40;99.90;;;;;;5095033;28;20559;-70
2023/08/02 11:51:12;;;;;;;5.60;5.20;;;18.40;99.90;;;;;;5094990;28;20844;-70
2023/08/02 11:53:49;;;;;;;5.83;5.13;;;18.40;99.90;;;;;;5094744;28;20534;-70
2023/08/02 11:56:21;;;;;;;6.53;5.77;;;18.40;99.90;;;;;;5093501;28;20943;-70
2023/08/02 11:58:50;;;;;;;6.80;5.40;;;18.40;99.90;;;;;;5094969;28;20424;-70
2023/08/02 12:01:19;;;;;;;6.03;5.47;;;18.40;99.90;;;;;;5094565;28;20437;-70
2023/08/02 12:03:58;;;;;;;6.47;5.83;;;18.40;99.90;;;;;;5094408;28;20481;-70
2023/08/02 12:06:26;;;;;;;6.50;5.70;;;18.40;99.90;;;;;;5094774;28;20481;-70
2023/08/02 12:08:56;;;;;;;6.17;5.60;;;18.40;99.90;;;;;;5094461;28;20977;-70
2023/08/02 12:11:28;;;;;;;6.17;5.60;;;18.40;99.90;;;;;;5094828;28;20503;-70
2023/08/02 12:13:58;;;;;;;6.20;5.60;;;18.40;99.90;;;;;;5092984;28;20439;-70
2023/08/02 12:16:37;;;;;;;6.50;5.70;;;18.40;99.90;;;;;;5094228;28;20782;-70
2023/08/02 12:19:05;;;;;;;6.83;6.23;;;18.40;99.90;;;;;;5093020;28;20432;-70
2023/08/02 12:21:33;;;;;;;8.10;7.50;;;18.40;99.90;;;;;;5094540;28;20425;-70
2023/08/02 12:24:13;;;;;;;4.70;4.30;;;18.40;99.90;;;;;;5092870;28;20483;-70
2023/08/02 12:26:43;;;;;;;4.40;4.10;;;18.40;99.90;;;;;;5094644;28;20412;-70
2023/08/02 12:29:22;;;;;;;5.07;4.67;;;18.40;99.90;;;;;;5094293;28;20535;-70
2023/08/02 12:31:53;;;;;;;4.70;4.20;;;18.40;99.90;;;;;;5092569;28;20436;-70
2023/08/02 12:34:21;;;;;;;4.10;3.80;;;18.40;99.90;;;;;;5093939;28;20862;-70
2023/08/02 12:36:50;;;;;;;3.87;3.57;;;18.40;99.90;;;;;;5094255;28;20428;-70
2023/08/02 12:39:18;;;;;;;3.90;3.60;;;18.40;99.90;;;;;;5092526;28;20448;-70
2023/08/02 12:41:47;;;;;;;6.77;4.03;;;18.40;99.90;;;;;;5094039;28;20440;-70
2023/08/02 12:44:15;;;;;;;3.97;3.57;;;18.40;99.90;;;;;;5094084;28;20459;-70
2023/08/02 12:46:43;;;;;;;4.93;3.80;;;18.40;99.90;;;;;;5093765;28;20456;-70
2023/08/02 12:49:12;;;;;;;6.10;4.30;;;18.40;99.90;;;;;;5092364;28;20820;-70
2023/08/02 12:51:40;;;;;;;4.70;4.00;;;18.40;99.90;;;;;;5093924;28;20438;-70
2023/08/02 12:54:08;;;;;;;3.93;3.60;;;18.40;99.90;;;;;;5093946;28;20837;-70
2023/08/02 12:56:36;;;;;;;5.50;4.17;;;18.40;99.90;;;;;;5093648;28;20745;-70
2023/08/02 12:59:06;;;;;;;5.00;4.60;;;18.40;99.90;;;;;;5093809;28;20464;-70